createdAt,value
2022-12-24T07:08:53.425Z,10.40
2022-12-24T07:09:55.442Z,10.38
2022-12-24T07:10:57.454Z,10.37
2022-12-24T07:11:59.460Z,10.38
2022-12-24T07:13:01.516Z,10.35
2022-12-24T07:14:03.573Z,10.33
2022-12-24T07:15:05.615Z,10.28
2022-12-24T07:16:07.815Z,10.26
2022-12-24T07:17:08.913Z,10.22
2022-12-24T07:18:09.920Z,10.20
2022-12-24T07:19:11.909Z,10.15
2022-12-24T07:20:13.930Z,10.12
2022-12-24T07:21:15.939Z,10.12
2022-12-24T07:22:17.929Z,10.12
2022-12-24T07:23:19.940Z,10.09
2022-12-24T07:24:21.990Z,10.09
2022-12-24T07:25:23.985Z,10.07
2022-12-24T07:26:26.049Z,10.05
2022-12-24T07:27:28.057Z,10.07
2022-12-24T07:28:30.071Z,10.05
2022-12-24T07:29:32.102Z,10.05
2022-12-24T07:30:34.132Z,10.01
2022-12-24T07:31:36.224Z,9.99
2022-12-24T07:32:38.216Z,10.02
2022-12-24T07:33:50.099Z,10.05
2022-12-24T07:34:42.222Z,10.05
2022-12-24T07:35:44.244Z,10.07
2022-12-24T07:36:46.295Z,10.05
2022-12-24T07:37:48.338Z,10.05
2022-12-24T07:38:50.376Z,10.04
2022-12-24T07:39:52.385Z,10.04
2022-12-24T07:40:54.397Z,10.01
2022-12-24T07:41:56.385Z,9.98
2022-12-24T07:42:58.417Z,9.99
2022-12-24T07:44:00.444Z,10.02
2022-12-24T07:45:02.517Z,10.04
2022-12-24T07:46:04.531Z,10.05
2022-12-24T07:47:06.600Z,10.09
2022-12-24T07:48:08.720Z,10.09
2022-12-24T07:49:10.758Z,10.09
2022-12-24T07:50:12.777Z,10.10
2022-12-24T07:51:14.810Z,10.13
2022-12-24T07:52:16.846Z,10.16
2022-12-24T07:53:18.872Z,10.19
2022-12-24T07:54:20.913Z,10.22
2022-12-24T07:55:22.942Z,10.26
2022-12-24T07:56:24.951Z,10.25
2022-12-24T07:57:27.005Z,10.28
2022-12-24T07:58:29.064Z,10.30
2022-12-24T07:59:31.107Z,10.28
2022-12-24T08:00:33.142Z,10.31
2022-12-24T08:01:35.301Z,10.28
2022-12-24T08:02:37.559Z,10.33
2022-12-24T08:03:38.735Z,10.28
2022-12-24T08:04:39.744Z,10.26
2022-12-24T08:05:41.741Z,10.28
2022-12-24T08:06:43.771Z,10.33
2022-12-24T08:07:45.800Z,10.34
2022-12-24T08:08:47.814Z,10.34
2022-12-24T08:09:49.934Z,10.37
2022-12-24T08:10:51.969Z,10.40
2022-12-24T08:11:53.988Z,10.40
2022-12-24T08:12:56.016Z,10.42
2022-12-24T08:13:58.029Z,10.41
2022-12-24T08:15:00.030Z,10.41
2022-12-24T08:16:02.079Z,10.38
2022-12-24T08:17:04.097Z,10.42
2022-12-24T08:18:06.116Z,10.44
2022-12-24T08:19:08.144Z,10.52
2022-12-24T08:20:10.161Z,10.58
2022-12-24T08:21:12.213Z,10.60
2022-12-24T08:22:14.207Z,10.60
2022-12-24T08:23:16.216Z,10.66
2022-12-24T08:24:18.230Z,10.70
2022-12-24T08:25:20.222Z,10.68
2022-12-24T08:26:22.270Z,10.67
2022-12-24T08:27:24.261Z,10.62
2022-12-24T08:28:26.270Z,10.66
2022-12-24T08:29:28.261Z,10.63
2022-12-24T08:30:30.298Z,10.63
2022-12-24T08:31:32.339Z,10.62
2022-12-24T08:32:34.380Z,10.60
2022-12-24T08:33:36.404Z,10.60
2022-12-24T08:34:38.410Z,10.59
2022-12-24T08:35:40.448Z,10.59
2022-12-24T08:36:42.444Z,10.58
2022-12-24T08:37:44.440Z,10.55
2022-12-24T08:38:46.451Z,10.55
2022-12-24T08:39:48.515Z,10.53
2022-12-24T08:40:50.574Z,10.52
2022-12-24T08:41:52.559Z,10.55
2022-12-24T08:42:54.600Z,10.49
2022-12-24T08:43:56.608Z,10.46
2022-12-24T08:44:58.648Z,10.44
2022-12-24T08:46:00.711Z,10.42
2022-12-24T08:47:02.740Z,10.44
2022-12-24T08:48:04.752Z,10.42
2022-12-24T08:49:06.774Z,10.38
2022-12-24T08:50:08.833Z,10.35
2022-12-24T08:51:10.851Z,10.37
2022-12-24T08:52:12.867Z,10.38
2022-12-24T08:53:14.924Z,10.40
2022-12-24T08:54:16.935Z,10.41
2022-12-24T08:55:18.971Z,10.41
2022-12-24T08:56:21.010Z,10.44
2022-12-24T08:57:23.070Z,10.48
2022-12-24T08:58:25.078Z,10.49
2022-12-24T08:59:27.101Z,10.49
2022-12-24T09:00:29.615Z,10.50
2022-12-24T09:01:30.754Z,10.50
2022-12-24T09:02:31.839Z,10.55
2022-12-24T09:03:32.934Z,10.60
2022-12-24T09:04:34.968Z,10.59
2022-12-24T09:05:37.014Z,10.60
2022-12-24T09:06:39.042Z,10.62
2022-12-24T09:07:41.056Z,10.63
2022-12-24T09:08:43.051Z,10.62
2022-12-24T09:09:45.061Z,10.62
2022-12-24T09:10:47.087Z,10.63
2022-12-24T09:11:49.097Z,10.63
2022-12-24T09:12:51.130Z,10.66
2022-12-24T09:13:53.157Z,10.68
2022-12-24T09:15:01.237Z,10.71
2022-12-24T09:15:56.601Z,10.74
2022-12-24T09:16:58.684Z,10.74
2022-12-24T09:18:00.673Z,10.74
2022-12-24T09:19:02.693Z,10.73
2022-12-24T09:20:04.715Z,10.74
2022-12-24T09:21:06.735Z,10.74
2022-12-24T09:22:08.751Z,10.77
2022-12-24T09:23:10.757Z,10.81
2022-12-24T09:24:12.791Z,10.85
2022-12-24T09:25:14.802Z,10.86
2022-12-24T09:26:16.832Z,10.91
2022-12-24T09:27:18.866Z,10.95
2022-12-24T09:28:20.855Z,10.99
2022-12-24T09:29:22.860Z,10.99
2022-12-24T09:30:24.886Z,11.01
2022-12-24T09:31:26.995Z,10.98
2022-12-24T09:32:29.034Z,10.95
2022-12-24T09:33:31.034Z,10.93
2022-12-24T09:34:33.067Z,10.96
2022-12-24T09:35:35.096Z,10.93
2022-12-24T09:36:37.138Z,10.93
2022-12-24T09:37:39.221Z,10.91
2022-12-24T09:38:41.242Z,10.89
2022-12-24T09:39:43.231Z,10.86
2022-12-24T09:40:45.256Z,10.88
2022-12-24T09:41:47.287Z,10.91
2022-12-24T09:42:49.318Z,10.96
2022-12-24T09:43:51.337Z,10.96
2022-12-24T09:44:53.352Z,10.95
2022-12-24T09:45:55.511Z,10.93
2022-12-24T09:46:57.541Z,10.96
2022-12-24T09:47:59.557Z,10.98
2022-12-24T09:49:01.591Z,11.03
2022-12-24T09:50:03.646Z,11.06
2022-12-24T09:51:05.677Z,11.06
2022-12-24T09:52:07.760Z,11.09
2022-12-24T09:53:09.783Z,11.09
2022-12-24T09:54:11.783Z,11.14
2022-12-24T09:55:13.788Z,11.22
2022-12-24T09:56:15.815Z,11.30
2022-12-24T09:57:17.891Z,11.35
2022-12-24T09:58:19.894Z,11.35
2022-12-24T09:59:21.923Z,11.43
2022-12-24T10:00:23.941Z,11.47
2022-12-24T10:01:26.091Z,11.48
2022-12-24T10:02:28.308Z,11.48
2022-12-24T10:03:29.349Z,11.47
2022-12-24T10:04:31.385Z,11.51
2022-12-24T10:05:33.423Z,11.52
2022-12-24T10:06:35.472Z,11.57
2022-12-24T10:07:38.484Z,11.57
2022-12-24T10:08:39.394Z,11.59
2022-12-24T10:09:41.409Z,11.55
2022-12-24T10:10:43.438Z,11.54
2022-12-24T10:11:45.455Z,11.52
2022-12-24T10:12:49.772Z,11.54
2022-12-24T10:13:48.786Z,11.55
2022-12-24T10:14:50.797Z,11.55
2022-12-24T10:15:52.822Z,11.55
2022-12-24T10:16:54.880Z,11.55
2022-12-24T10:17:56.902Z,11.52
2022-12-24T10:18:58.934Z,11.50
2022-12-24T10:20:00.972Z,11.51
2022-12-24T10:21:02.970Z,11.54
2022-12-24T10:22:04.986Z,11.51
2022-12-24T10:23:07.045Z,11.54
2022-12-24T10:24:09.102Z,11.55
2022-12-24T10:25:11.089Z,11.60
2022-12-24T10:26:13.105Z,11.78
2022-12-24T10:27:15.137Z,12.21
2022-12-24T10:28:17.174Z,12.42
2022-12-24T10:29:19.190Z,12.26
2022-12-24T10:30:21.296Z,12.87
2022-12-24T10:31:23.333Z,13.31
2022-12-24T10:32:25.407Z,13.28
2022-12-24T10:33:27.435Z,14.26
2022-12-24T10:34:29.463Z,15.03
2022-12-24T10:35:31.473Z,14.45
2022-12-24T10:36:33.473Z,13.92
2022-12-24T10:37:35.493Z,13.38
2022-12-24T10:38:37.515Z,12.98
2022-12-24T10:39:39.524Z,12.70
2022-12-24T10:40:41.551Z,12.54
2022-12-24T10:41:43.556Z,12.31
2022-12-24T10:42:51.077Z,12.14
2022-12-24T10:43:47.008Z,12.02
2022-12-24T10:44:49.120Z,11.98
2022-12-24T10:45:51.195Z,11.93
2022-12-24T10:46:53.248Z,11.88
2022-12-24T10:47:55.261Z,11.87
2022-12-24T10:48:57.367Z,11.88
2022-12-24T10:49:59.375Z,11.87
2022-12-24T10:51:01.456Z,11.84
2022-12-24T10:52:03.491Z,11.77
2022-12-24T10:53:05.583Z,11.72
2022-12-24T10:54:07.675Z,11.68
2022-12-24T10:55:09.721Z,11.63
2022-12-24T10:56:11.791Z,11.62
2022-12-24T10:57:13.809Z,11.60
2022-12-24T10:58:15.818Z,11.60
2022-12-24T10:59:17.829Z,11.59
2022-12-24T11:00:19.859Z,11.59
2022-12-24T11:01:21.935Z,11.65
2022-12-24T11:02:24.269Z,11.62
2022-12-24T11:03:25.329Z,11.65
2022-12-24T11:04:27.364Z,11.63
2022-12-24T11:05:29.353Z,11.63
2022-12-24T11:06:31.366Z,11.63
2022-12-24T11:07:33.395Z,11.66
2022-12-24T11:08:35.410Z,11.72
2022-12-24T11:09:37.453Z,11.75
2022-12-24T11:10:39.463Z,11.80
2022-12-24T11:11:41.496Z,11.81
2022-12-24T11:12:43.503Z,11.80
2022-12-24T11:13:45.507Z,11.80
2022-12-24T11:14:47.548Z,11.80
2022-12-24T11:15:49.601Z,11.75
2022-12-24T11:16:51.640Z,11.72
2022-12-24T11:17:53.663Z,11.70
2022-12-24T11:18:55.696Z,11.73
2022-12-24T11:19:57.732Z,11.77
2022-12-24T11:20:59.771Z,11.80
2022-12-24T11:22:01.827Z,11.83
2022-12-24T11:23:03.843Z,11.84
2022-12-24T11:24:05.852Z,11.91
2022-12-24T11:25:07.871Z,11.93
2022-12-24T11:26:09.913Z,12.01
2022-12-24T11:27:11.921Z,12.05
2022-12-24T11:28:13.942Z,12.08
2022-12-24T11:29:15.999Z,12.06
2022-12-24T11:30:18.154Z,12.06
2022-12-24T11:31:20.331Z,12.08
2022-12-24T11:32:21.306Z,12.12
2022-12-24T11:33:23.339Z,12.20
2022-12-24T11:34:25.368Z,12.23
2022-12-24T11:35:27.459Z,12.30
2022-12-24T11:36:29.478Z,12.35
2022-12-24T11:37:31.491Z,12.44
2022-12-24T11:38:33.503Z,12.52
2022-12-24T11:39:35.601Z,12.60
2022-12-24T11:40:37.603Z,12.68
2022-12-24T11:41:39.653Z,12.83
2022-12-24T11:42:41.679Z,12.94
2022-12-24T11:43:43.708Z,13.05
2022-12-24T11:44:45.751Z,13.13
2022-12-24T11:45:47.788Z,13.18
2022-12-24T11:46:49.832Z,13.22
2022-12-24T11:47:51.841Z,13.22
2022-12-24T11:48:53.849Z,13.23
2022-12-24T11:50:12.808Z,13.13
2022-12-24T11:50:57.315Z,13.08
2022-12-24T11:51:59.344Z,13.01
2022-12-24T11:53:01.353Z,12.91
2022-12-24T11:54:03.362Z,12.80
2022-12-24T11:55:10.310Z,12.76
2022-12-24T11:56:06.864Z,12.68
2022-12-24T11:57:08.900Z,12.64
2022-12-24T11:58:10.934Z,12.56
2022-12-24T11:59:12.967Z,12.54
2022-12-24T12:00:14.994Z,12.46
2022-12-24T12:01:17.035Z,12.42
2022-12-24T12:02:19.103Z,12.38
2022-12-24T12:03:21.149Z,12.38
2022-12-24T12:04:23.261Z,12.39
2022-12-24T12:05:24.234Z,12.36
2022-12-24T12:06:26.271Z,12.35
2022-12-24T12:07:28.285Z,12.31
2022-12-24T12:08:30.305Z,12.30
2022-12-24T12:09:32.342Z,12.27
2022-12-24T12:10:34.344Z,12.27
2022-12-24T12:11:36.394Z,12.23
2022-12-24T12:12:38.401Z,12.27
2022-12-24T12:13:40.414Z,12.28
2022-12-24T12:14:42.434Z,12.31
2022-12-24T12:15:44.524Z,12.31
2022-12-24T12:16:46.587Z,12.31
2022-12-24T12:17:48.587Z,12.30
2022-12-24T12:18:50.627Z,12.30
2022-12-24T12:19:52.638Z,12.26
2022-12-24T12:20:54.652Z,12.23
2022-12-24T12:21:56.678Z,12.27
2022-12-24T12:22:58.720Z,12.28
2022-12-24T12:24:00.729Z,12.28
2022-12-24T12:25:02.739Z,12.23
2022-12-24T12:26:04.752Z,12.24
2022-12-24T12:27:06.770Z,12.21
2022-12-24T12:28:08.779Z,12.21
2022-12-24T12:29:10.809Z,12.21
2022-12-24T12:30:12.898Z,12.20
2022-12-24T12:31:16.585Z,12.20
2022-12-24T12:32:16.522Z,12.21
2022-12-24T12:33:18.649Z,12.19
2022-12-24T12:34:20.696Z,12.17
2022-12-24T12:35:22.700Z,12.14
2022-12-24T12:37:22.686Z,12.09
2022-12-24T12:38:25.822Z,12.09
2022-12-24T12:39:27.850Z,12.09
2022-12-24T12:40:29.907Z,12.06
2022-12-24T12:41:31.926Z,12.16
2022-12-24T12:42:33.969Z,12.17
2022-12-24T12:43:36.002Z,12.23
2022-12-24T12:44:38.037Z,12.27
2022-12-24T12:45:40.067Z,12.34
2022-12-24T12:46:42.117Z,12.38
2022-12-24T12:47:44.145Z,12.39
2022-12-24T12:48:46.171Z,12.42
2022-12-24T12:49:48.171Z,12.42
2022-12-24T12:50:50.206Z,12.44
2022-12-24T12:51:52.249Z,12.41
2022-12-24T12:52:54.294Z,12.36
2022-12-24T12:53:56.326Z,12.34
2022-12-24T12:54:58.360Z,12.35
2022-12-24T12:56:00.419Z,12.36
2022-12-24T12:57:02.429Z,12.28
2022-12-24T12:58:04.997Z,12.21
2022-12-24T12:59:05.943Z,12.23
2022-12-24T13:00:07.980Z,12.20
2022-12-24T13:01:10.149Z,12.19
2022-12-24T13:02:11.249Z,12.17
2022-12-24T13:03:12.289Z,12.12
2022-12-24T13:04:14.356Z,12.16
2022-12-24T13:05:16.412Z,12.16
2022-12-24T13:06:18.450Z,12.16
2022-12-24T13:07:20.486Z,12.16
2022-12-24T13:08:22.545Z,12.17
2022-12-24T13:09:24.573Z,12.16
2022-12-24T13:10:26.607Z,12.17
2022-12-24T13:11:28.642Z,12.14
2022-12-24T13:12:30.675Z,12.17
2022-12-24T13:13:32.717Z,12.09
2022-12-24T13:14:34.758Z,12.11
2022-12-24T13:15:36.774Z,12.08
2022-12-24T13:16:38.827Z,12.11
2022-12-24T13:17:40.862Z,12.06
2022-12-24T13:18:42.941Z,12.03
2022-12-24T13:19:44.965Z,11.96
2022-12-24T13:20:46.998Z,11.90
2022-12-24T13:21:49.107Z,11.84
2022-12-24T13:22:51.091Z,11.78
2022-12-24T13:23:53.138Z,11.72
2022-12-24T13:24:55.195Z,11.66
2022-12-24T13:25:57.229Z,11.62
2022-12-24T13:26:59.312Z,11.54
2022-12-24T13:28:01.352Z,11.48
2022-12-24T13:29:03.386Z,11.43
2022-12-24T13:30:10.080Z,11.43
2022-12-24T13:31:06.893Z,11.40
2022-12-24T13:32:08.918Z,11.37
2022-12-24T13:33:10.958Z,11.33
2022-12-24T13:34:12.995Z,11.29
2022-12-24T13:35:15.028Z,11.26
2022-12-24T13:36:17.070Z,11.27
2022-12-24T13:37:19.084Z,11.23
2022-12-24T13:38:21.118Z,11.22
2022-12-24T13:39:23.148Z,11.13
2022-12-24T13:40:25.225Z,11.07
2022-12-24T13:41:30.204Z,11.03
2022-12-24T13:42:28.670Z,10.98
2022-12-24T13:43:30.703Z,10.95
2022-12-24T13:44:33.025Z,10.96
2022-12-24T13:45:34.291Z,10.95
2022-12-24T13:46:35.268Z,10.95
2022-12-24T13:47:37.269Z,10.95
2022-12-24T13:48:39.302Z,10.96
2022-12-24T13:49:41.354Z,10.95
2022-12-24T13:50:43.385Z,10.95
2022-12-24T13:51:45.397Z,10.96
2022-12-24T13:52:47.428Z,11.03
2022-12-24T13:53:49.460Z,11.01
2022-12-24T13:54:51.519Z,11.01
2022-12-24T13:55:53.539Z,11.04
2022-12-24T13:56:55.569Z,11.11
2022-12-24T13:57:57.618Z,11.10
2022-12-24T13:58:59.649Z,11.09
2022-12-24T14:00:02.559Z,11.09
2022-12-24T14:01:03.644Z,11.09
2022-12-24T14:02:04.813Z,11.09
2022-12-24T14:03:05.948Z,11.04
2022-12-24T14:04:07.984Z,11.04
2022-12-24T14:05:10.038Z,11.03
2022-12-24T14:06:12.078Z,11.04
2022-12-24T14:07:14.127Z,11.04
2022-12-24T14:08:16.166Z,11.03
2022-12-24T14:09:18.223Z,11.03
2022-12-24T14:10:20.284Z,11.03
2022-12-24T14:11:22.353Z,10.99
2022-12-24T14:12:27.744Z,11.01
2022-12-24T14:13:25.509Z,10.99
2022-12-24T14:14:27.546Z,10.99
2022-12-24T14:15:29.584Z,10.99
2022-12-24T14:16:31.710Z,11.03
2022-12-24T14:17:33.733Z,11.04
2022-12-24T14:18:35.771Z,11.06
2022-12-24T14:19:37.891Z,11.09
2022-12-24T14:20:39.878Z,11.04
2022-12-24T14:21:41.920Z,10.99
2022-12-24T14:22:43.967Z,10.99
2022-12-24T14:23:46.006Z,10.99
2022-12-24T14:24:48.047Z,10.96
2022-12-24T14:25:50.131Z,10.98
2022-12-24T14:26:52.172Z,10.96
2022-12-24T14:27:55.019Z,10.96
2022-12-24T14:28:55.966Z,10.98
2022-12-24T14:29:58.023Z,10.96
2022-12-24T14:31:00.132Z,11.03
2022-12-24T14:32:02.244Z,11.04
2022-12-24T14:33:04.245Z,11.07
2022-12-24T14:34:06.290Z,11.06
2022-12-24T14:35:08.360Z,11.07
2022-12-24T14:36:10.402Z,11.09
2022-12-24T14:37:12.453Z,11.07
2022-12-24T14:38:14.498Z,11.06
2022-12-24T14:39:16.532Z,11.06
2022-12-24T14:40:18.585Z,11.04
2022-12-24T14:41:20.641Z,11.06
2022-12-24T14:42:22.665Z,11.06
2022-12-24T14:43:24.720Z,11.06
2022-12-24T14:44:29.756Z,11.03
2022-12-24T14:45:28.239Z,11.07
2022-12-24T14:46:30.362Z,11.04
2022-12-24T14:47:32.405Z,11.04
2022-12-24T14:48:34.448Z,11.03
2022-12-24T14:49:36.495Z,11.03
2022-12-24T14:50:38.528Z,11.01
2022-12-24T14:51:40.579Z,11.01
2022-12-24T14:53:44.065Z,10.99
2022-12-24T14:54:46.109Z,10.99
2022-12-24T14:55:48.144Z,10.98
2022-12-24T14:56:50.222Z,10.96
2022-12-24T14:57:52.266Z,10.93
2022-12-24T14:58:54.313Z,10.92
2022-12-24T14:59:56.359Z,10.89
2022-12-24T15:00:58.486Z,10.83
2022-12-24T15:02:00.730Z,10.81
2022-12-24T15:03:01.737Z,10.81
2022-12-24T15:04:03.784Z,10.83
2022-12-24T15:05:05.809Z,10.77
2022-12-24T15:06:07.849Z,10.78
2022-12-24T15:07:09.896Z,10.75
2022-12-24T15:08:11.937Z,10.71
2022-12-24T15:09:13.986Z,10.74
